sensor_id;sensor_type;location;lat;lon;timestamp;temperature;humidity
1391;DHT22;690;51.454;7.194;2023-06-26T00:02:11;22.20;99.90
1391;DHT22;690;51.454;7.194;2023-06-26T00:04:38;22.10;99.90
1391;DHT22;690;51.454;7.194;2023-06-26T00:07:05;22.00;99.90
1391;DHT22;690;51.454;7.194;2023-06-26T00:09:33;21.90;99.90
1391;DHT22;690;51.454;7.194;2023-06-26T00:12:02;21.90;99.90
1391;DHT22;690;51.454;7.194;2023-06-26T00:14:29;21.80;99.90
1391;DHT22;690;51.454;7.194;2023-06-26T00:16:56;21.80;99.90
1391;DHT22;690;51.454;7.194;2023-06-26T00:19:23;21.70;99.90
1391;DHT22;690;51.454;7.194;2023-06-26T00:21:49;21.70;99.90
1391;DHT22;690;51.454;7.194;2023-06-26T00:24:17;21.70;99.90
1391;DHT22;690;51.454;7.194;2023-06-26T00:26:49;21.60;99.90
1391;DHT22;690;51.454;7.194;2023-06-26T00:29:16;21.60;99.90
1391;DHT22;690;51.454;7.194;2023-06-26T00:31:46;21.60;99.90
1391;DHT22;690;51.454;7.194;2023-06-26T00:34:13;21.60;99.90
1391;DHT22;690;51.454;7.194;2023-06-26T00:36:40;21.50;99.90
1391;DHT22;690;51.454;7.194;2023-06-26T00:39:08;21.50;99.90
1391;DHT22;690;51.454;7.194;2023-06-26T00:41:36;21.50;99.90
1391;DHT22;690;51.454;7.194;2023-06-26T00:44:04;21.50;99.90
1391;DHT22;690;51.454;7.194;2023-06-26T00:46:31;21.50;99.90
1391;DHT22;690;51.454;7.194;2023-06-26T00:48:59;21.50;99.90
1391;DHT22;690;51.454;7.194;2023-06-26T00:51:27;21.40;99.90
1391;DHT22;690;51.454;7.194;2023-06-26T00:53:54;21.40;99.90
1391;DHT22;690;51.454;7.194;2023-06-26T00:56:22;21.40;99.90
1391;DHT22;690;51.454;7.194;2023-06-26T00:58:49;21.30;99.90
1391;DHT22;690;51.454;7.194;2023-06-26T01:01:17;21.30;99.90
1391;DHT22;690;51.454;7.194;2023-06-26T01:03:48;21.30;99.90
1391;DHT22;690;51.454;7.194;2023-06-26T01:06:18;21.30;99.90
1391;DHT22;690;51.454;7.194;2023-06-26T01:08:46;21.30;99.90
1391;DHT22;690;51.454;7.194;2023-06-26T01:11:14;21.20;99.90
1391;DHT22;690;51.454;7.194;2023-06-26T01:13:42;21.20;99.90
1391;DHT22;690;51.454;7.194;2023-06-26T01:16:10;21.20;99.90
1391;DHT22;690;51.454;7.194;2023-06-26T01:18:40;21.20;99.90
1391;DHT22;690;51.454;7.194;2023-06-26T01:21:09;21.10;99.90
1391;DHT22;690;51.454;7.194;2023-06-26T01:23:42;21.10;99.90
1391;DHT22;690;51.454;7.194;2023-06-26T01:26:17;21.10;99.90
1391;DHT22;690;51.454;7.194;2023-06-26T01:28:46;21.10;99.90
1391;DHT22;690;51.454;7.194;2023-06-26T01:31:13;21.00;99.90
1391;DHT22;690;51.454;7.194;2023-06-26T01:33:41;21.00;99.90
1391;DHT22;690;51.454;7.194;2023-06-26T01:36:10;21.00;99.90
1391;DHT22;690;51.454;7.194;2023-06-26T01:38:37;21.00;99.90
1391;DHT22;690;51.454;7.194;2023-06-26T01:41:05;21.00;99.90
1391;DHT22;690;51.454;7.194;2023-06-26T01:43:37;20.90;99.90
1391;DHT22;690;51.454;7.194;2023-06-26T01:46:10;20.90;99.90
1391;DHT22;690;51.454;7.194;2023-06-26T01:48:44;20.80;99.90
1391;DHT22;690;51.454;7.194;2023-06-26T01:51:14;20.80;99.90
1391;DHT22;690;51.454;7.194;2023-06-26T01:53:46;20.80;99.90
1391;DHT22;690;51.454;7.194;2023-06-26T01:56:14;20.80;99.90
1391;DHT22;690;51.454;7.194;2023-06-26T01:58:46;20.70;99.90
1391;DHT22;690;51.454;7.194;2023-06-26T02:01:13;20.70;99.90
1391;DHT22;690;51.454;7.194;2023-06-26T02:03:40;20.70;99.90
1391;DHT22;690;51.454;7.194;2023-06-26T02:06:07;20.70;99.90
1391;DHT22;690;51.454;7.194;2023-06-26T02:08:34;20.70;99.90
1391;DHT22;690;51.454;7.194;2023-06-26T02:11:01;20.60;99.90
1391;DHT22;690;51.454;7.194;2023-06-26T02:13:28;20.60;99.90
1391;DHT22;690;51.454;7.194;2023-06-26T02:15:59;20.60;99.90
1391;DHT22;690;51.454;7.194;2023-06-26T02:18:26;20.60;99.90
1391;DHT22;690;51.454;7.194;2023-06-26T02:20:53;20.60;99.90
1391;DHT22;690;51.454;7.194;2023-06-26T02:23:20;20.50;99.90
1391;DHT22;690;51.454;7.194;2023-06-26T02:25:47;20.50;99.90
1391;DHT22;690;51.454;7.194;2023-06-26T02:28:13;20.50;99.90
1391;DHT22;690;51.454;7.194;2023-06-26T02:30:41;20.50;99.90
1391;DHT22;690;51.454;7.194;2023-06-26T02:33:09;20.50;99.90
1391;DHT22;690;51.454;7.194;2023-06-26T02:35:36;20.50;99.90
1391;DHT22;690;51.454;7.194;2023-06-26T02:38:03;20.40;99.90
1391;DHT22;690;51.454;7.194;2023-06-26T02:40:30;20.40;99.90
1391;DHT22;690;51.454;7.194;2023-06-26T02:42:57;20.40;99.90
1391;DHT22;690;51.454;7.194;2023-06-26T02:45:24;20.40;99.90
1391;DHT22;690;51.454;7.194;2023-06-26T02:47:51;20.40;99.90
1391;DHT22;690;51.454;7.194;2023-06-26T02:50:19;20.40;99.90
1391;DHT22;690;51.454;7.194;2023-06-26T02:52:46;20.40;99.90
1391;DHT22;690;51.454;7.194;2023-06-26T02:55:16;20.40;99.90
1391;DHT22;690;51.454;7.194;2023-06-26T02:57:43;20.40;99.90
1391;DHT22;690;51.454;7.194;2023-06-26T03:00:10;20.40;99.90
1391;DHT22;690;51.454;7.194;2023-06-26T03:02:38;20.30;99.90
1391;DHT22;690;51.454;7.194;2023-06-26T03:05:05;20.30;99.90
1391;DHT22;690;51.454;7.194;2023-06-26T03:07:34;20.30;99.90
1391;DHT22;690;51.454;7.194;2023-06-26T03:10:01;20.30;99.90
1391;DHT22;690;51.454;7.194;2023-06-26T03:12:28;20.30;99.90
1391;DHT22;690;51.454;7.194;2023-06-26T03:14:54;20.30;99.90
1391;DHT22;690;51.454;7.194;2023-06-26T03:17:22;20.30;99.90
1391;DHT22;690;51.454;7.194;2023-06-26T03:19:48;20.30;99.90
1391;DHT22;690;51.454;7.194;2023-06-26T03:22:15;20.20;99.90
1391;DHT22;690;51.454;7.194;2023-06-26T03:24:46;20.20;99.90
1391;DHT22;690;51.454;7.194;2023-06-26T03:27:13;20.20;99.90
1391;DHT22;690;51.454;7.194;2023-06-26T03:29:40;20.20;99.90
1391;DHT22;690;51.454;7.194;2023-06-26T03:32:07;20.20;99.90
1391;DHT22;690;51.454;7.194;2023-06-26T03:34:35;20.20;99.90
1391;DHT22;690;51.454;7.194;2023-06-26T03:37:02;20.30;99.90
1391;DHT22;690;51.454;7.194;2023-06-26T03:39:29;20.30;99.90
1391;DHT22;690;51.454;7.194;2023-06-26T03:41:57;20.40;99.90
1391;DHT22;690;51.454;7.194;2023-06-26T03:44:26;20.40;99.90
1391;DHT22;690;51.454;7.194;2023-06-26T03:46:53;20.40;99.90
1391;DHT22;690;51.454;7.194;2023-06-26T03:49:20;20.50;99.90
1391;DHT22;690;51.454;7.194;2023-06-26T03:51:47;20.50;99.90
1391;DHT22;690;51.454;7.194;2023-06-26T03:54:14;20.60;99.90
1391;DHT22;690;51.454;7.194;2023-06-26T03:56:40;20.60;99.90
1391;DHT22;690;51.454;7.194;2023-06-26T03:59:10;20.60;99.90
1391;DHT22;690;51.454;7.194;2023-06-26T04:01:37;20.60;99.90
1391;DHT22;690;51.454;7.194;2023-06-26T04:04:04;20.70;99.90
1391;DHT22;690;51.454;7.194;2023-06-26T04:06:31;20.80;99.90
1391;DHT22;690;51.454;7.194;2023-06-26T04:08:59;20.80;99.90
1391;DHT22;690;51.454;7.194;2023-06-26T04:11:26;20.80;99.90
1391;DHT22;690;51.454;7.194;2023-06-26T04:13:53;20.80;99.90
1391;DHT22;690;51.454;7.194;2023-06-26T04:16:22;20.80;99.90
1391;DHT22;690;51.454;7.194;2023-06-26T04:18:50;20.80;99.90
1391;DHT22;690;51.454;7.194;2023-06-26T04:21:18;20.80;99.90
1391;DHT22;690;51.454;7.194;2023-06-26T04:23:45;20.80;99.90
1391;DHT22;690;51.454;7.194;2023-06-26T04:26:13;20.80;99.90
1391;DHT22;690;51.454;7.194;2023-06-26T04:28:40;20.80;99.90
1391;DHT22;690;51.454;7.194;2023-06-26T04:31:08;20.80;99.90
1391;DHT22;690;51.454;7.194;2023-06-26T04:33:37;20.80;99.90
1391;DHT22;690;51.454;7.194;2023-06-26T04:36:04;20.70;99.90
1391;DHT22;690;51.454;7.194;2023-06-26T04:38:31;20.70;99.90
1391;DHT22;690;51.454;7.194;2023-06-26T04:40:58;20.80;99.90
1391;DHT22;690;51.454;7.194;2023-06-26T04:43:25;20.80;99.90
1391;DHT22;690;51.454;7.194;2023-06-26T04:45:52;20.70;99.90
1391;DHT22;690;51.454;7.194;2023-06-26T04:48:19;20.70;99.90
1391;DHT22;690;51.454;7.194;2023-06-26T04:50:47;20.70;99.90
1391;DHT22;690;51.454;7.194;2023-06-26T04:53:19;20.70;99.90
1391;DHT22;690;51.454;7.194;2023-06-26T04:55:47;20.70;99.90
1391;DHT22;690;51.454;7.194;2023-06-26T04:58:13;20.70;99.90
1391;DHT22;690;51.454;7.194;2023-06-26T05:00:40;20.70;99.90
1391;DHT22;690;51.454;7.194;2023-06-26T05:03:09;20.80;99.90
1391;DHT22;690;51.454;7.194;2023-06-26T05:05:36;20.80;99.90
1391;DHT22;690;51.454;7.194;2023-06-26T05:08:15;20.80;99.90
1391;DHT22;690;51.454;7.194;2023-06-26T05:10:42;20.80;99.90
1391;DHT22;690;51.454;7.194;2023-06-26T05:13:10;20.90;99.90
1391;DHT22;690;51.454;7.194;2023-06-26T05:15:37;20.90;99.90
1391;DHT22;690;51.454;7.194;2023-06-26T05:18:04;20.90;99.90
1391;DHT22;690;51.454;7.194;2023-06-26T05:20:32;21.00;99.90
1391;DHT22;690;51.454;7.194;2023-06-26T05:22:59;21.00;99.90
1391;DHT22;690;51.454;7.194;2023-06-26T05:25:29;21.00;99.90
1391;DHT22;690;51.454;7.194;2023-06-26T05:27:56;21.00;99.90
1391;DHT22;690;51.454;7.194;2023-06-26T05:30:24;21.00;99.90
1391;DHT22;690;51.454;7.194;2023-06-26T05:32:52;21.00;99.90
1391;DHT22;690;51.454;7.194;2023-06-26T05:35:20;21.00;99.90
1391;DHT22;690;51.454;7.194;2023-06-26T05:37:50;21.00;99.90
1391;DHT22;690;51.454;7.194;2023-06-26T05:40:18;20.90;99.90
1391;DHT22;690;51.454;7.194;2023-06-26T05:42:47;20.90;99.90
1391;DHT22;690;51.454;7.194;2023-06-26T05:45:15;20.90;99.90
1391;DHT22;690;51.454;7.194;2023-06-26T05:47:42;21.00;99.90
1391;DHT22;690;51.454;7.194;2023-06-26T05:50:10;20.90;99.90
1391;DHT22;690;51.454;7.194;2023-06-26T05:52:37;21.00;99.90
1391;DHT22;690;51.454;7.194;2023-06-26T05:55:06;21.00;99.90
1391;DHT22;690;51.454;7.194;2023-06-26T05:57:34;21.20;99.90
1391;DHT22;690;51.454;7.194;2023-06-26T06:00:04;21.30;99.90
1391;DHT22;690;51.454;7.194;2023-06-26T06:02:36;21.50;99.90
1391;DHT22;690;51.454;7.194;2023-06-26T06:05:03;21.60;99.90
1391;DHT22;690;51.454;7.194;2023-06-26T06:07:31;21.50;99.90
1391;DHT22;690;51.454;7.194;2023-06-26T06:09:59;21.40;99.90
1391;DHT22;690;51.454;7.194;2023-06-26T06:12:26;21.30;99.90
1391;DHT22;690;51.454;7.194;2023-06-26T06:14:53;21.20;99.90
1391;DHT22;690;51.454;7.194;2023-06-26T06:17:22;21.00;99.90
1391;DHT22;690;51.454;7.194;2023-06-26T06:19:49;20.90;99.90
1391;DHT22;690;51.454;7.194;2023-06-26T06:22:16;20.80;99.90
1391;DHT22;690;51.454;7.194;2023-06-26T06:24:43;20.90;99.90
1391;DHT22;690;51.454;7.194;2023-06-26T06:27:10;21.00;99.90
1391;DHT22;690;51.454;7.194;2023-06-26T06:29:38;21.10;99.90
1391;DHT22;690;51.454;7.194;2023-06-26T06:32:06;21.20;99.90
1391;DHT22;690;51.454;7.194;2023-06-26T06:34:34;21.30;99.90
1391;DHT22;690;51.454;7.194;2023-06-26T06:37:02;21.30;99.90
1391;DHT22;690;51.454;7.194;2023-06-26T06:39:29;21.40;99.90
1391;DHT22;690;51.454;7.194;2023-06-26T06:41:56;21.60;99.90
1391;DHT22;690;51.454;7.194;2023-06-26T06:44:23;21.70;99.90
1391;DHT22;690;51.454;7.194;2023-06-26T06:46:50;21.70;99.90
1391;DHT22;690;51.454;7.194;2023-06-26T06:49:18;21.80;99.90
1391;DHT22;690;51.454;7.194;2023-06-26T06:51:47;21.70;99.90
1391;DHT22;690;51.454;7.194;2023-06-26T06:54:15;21.70;99.90
1391;DHT22;690;51.454;7.194;2023-06-26T06:56:42;21.50;99.90
1391;DHT22;690;51.454;7.194;2023-06-26T06:59:09;21.30;99.90
1391;DHT22;690;51.454;7.194;2023-06-26T07:01:36;21.00;99.90
1391;DHT22;690;51.454;7.194;2023-06-26T07:04:03;20.90;99.90
1391;DHT22;690;51.454;7.194;2023-06-26T07:06:30;20.80;99.90
1391;DHT22;690;51.454;7.194;2023-06-26T07:08:58;20.70;99.90
1391;DHT22;690;51.454;7.194;2023-06-26T07:11:25;20.70;99.90
1391;DHT22;690;51.454;7.194;2023-06-26T07:13:52;20.70;99.90
1391;DHT22;690;51.454;7.194;2023-06-26T07:16:19;20.80;99.90
1391;DHT22;690;51.454;7.194;2023-06-26T07:18:46;20.70;99.90
1391;DHT22;690;51.454;7.194;2023-06-26T07:21:13;20.80;99.90
1391;DHT22;690;51.454;7.194;2023-06-26T07:23:39;20.80;99.90
1391;DHT22;690;51.454;7.194;2023-06-26T07:26:08;20.70;99.90
1391;DHT22;690;51.454;7.194;2023-06-26T07:28:35;20.70;99.90
1391;DHT22;690;51.454;7.194;2023-06-26T07:31:01;20.80;99.90
1391;DHT22;690;51.454;7.194;2023-06-26T07:33:28;20.90;99.90
1391;DHT22;690;51.454;7.194;2023-06-26T07:35:55;21.00;99.90
1391;DHT22;690;51.454;7.194;2023-06-26T07:38:22;21.10;99.90
1391;DHT22;690;51.454;7.194;2023-06-26T07:40:49;21.00;99.90
1391;DHT22;690;51.454;7.194;2023-06-26T07:43:18;21.00;99.90
1391;DHT22;690;51.454;7.194;2023-06-26T07:45:44;21.10;99.90
1391;DHT22;690;51.454;7.194;2023-06-26T07:48:11;21.20;99.90
1391;DHT22;690;51.454;7.194;2023-06-26T07:50:38;21.30;99.90
1391;DHT22;690;51.454;7.194;2023-06-26T07:53:05;21.50;99.90
1391;DHT22;690;51.454;7.194;2023-06-26T07:55:32;21.50;99.90
1391;DHT22;690;51.454;7.194;2023-06-26T07:57:59;21.50;99.90
1391;DHT22;690;51.454;7.194;2023-06-26T08:00:28;21.60;99.90
1391;DHT22;690;51.454;7.194;2023-06-26T08:02:55;21.60;99.90
1391;DHT22;690;51.454;7.194;2023-06-26T08:05:21;21.70;99.90
1391;DHT22;690;51.454;7.194;2023-06-26T08:07:48;22.00;99.90
1391;DHT22;690;51.454;7.194;2023-06-26T08:10:15;22.30;99.90
1391;DHT22;690;51.454;7.194;2023-06-26T08:12:42;22.50;99.90
1391;DHT22;690;51.454;7.194;2023-06-26T08:15:11;22.50;99.90
1391;DHT22;690;51.454;7.194;2023-06-26T08:17:39;22.40;99.90
1391;DHT22;690;51.454;7.194;2023-06-26T08:20:07;22.30;99.90
1391;DHT22;690;51.454;7.194;2023-06-26T08:22:34;22.40;99.90
1391;DHT22;690;51.454;7.194;2023-06-26T08:25:02;22.30;99.90
1391;DHT22;690;51.454;7.194;2023-06-26T08:27:31;22.20;99.90
1391;DHT22;690;51.454;7.194;2023-06-26T08:29:58;22.30;99.90
1391;DHT22;690;51.454;7.194;2023-06-26T08:32:26;22.40;99.90
1391;DHT22;690;51.454;7.194;2023-06-26T08:34:54;22.30;99.90
1391;DHT22;690;51.454;7.194;2023-06-26T08:37:21;22.20;99.90
1391;DHT22;690;51.454;7.194;2023-06-26T08:39:48;22.20;99.90
1391;DHT22;690;51.454;7.194;2023-06-26T08:42:15;22.10;99.90
1391;DHT22;690;51.454;7.194;2023-06-26T08:44:42;22.20;99.90
1391;DHT22;690;51.454;7.194;2023-06-26T08:47:11;22.40;99.90
1391;DHT22;690;51.454;7.194;2023-06-26T08:49:46;22.40;99.90
1391;DHT22;690;51.454;7.194;2023-06-26T08:52:19;22.30;99.90
1391;DHT22;690;51.454;7.194;2023-06-26T08:54:52;22.30;99.90
1391;DHT22;690;51.454;7.194;2023-06-26T08:57:20;22.50;99.90
1391;DHT22;690;51.454;7.194;2023-06-26T08:59:49;22.50;99.90
1391;DHT22;690;51.454;7.194;2023-06-26T09:02:16;22.40;99.90
1391;DHT22;690;51.454;7.194;2023-06-26T09:04:43;22.40;99.90
1391;DHT22;690;51.454;7.194;2023-06-26T09:07:10;22.30;99.90
1391;DHT22;690;51.454;7.194;2023-06-26T09:09:39;22.30;99.90
1391;DHT22;690;51.454;7.194;2023-06-26T09:12:06;22.30;99.90
1391;DHT22;690;51.454;7.194;2023-06-26T09:14:35;22.20;99.90
1391;DHT22;690;51.454;7.194;2023-06-26T09:17:03;22.20;99.90
1391;DHT22;690;51.454;7.194;2023-06-26T09:19:30;22.10;99.90
1391;DHT22;690;51.454;7.194;2023-06-26T09:21:57;22.10;99.90
1391;DHT22;690;51.454;7.194;2023-06-26T09:24:25;22.00;99.90
1391;DHT22;690;51.454;7.194;2023-06-26T09:26:53;22.00;99.90
1391;DHT22;690;51.454;7.194;2023-06-26T09:29:21;22.00;99.90
1391;DHT22;690;51.454;7.194;2023-06-26T09:31:48;22.10;99.90
1391;DHT22;690;51.454;7.194;2023-06-26T09:34:14;22.10;99.90
1391;DHT22;690;51.454;7.194;2023-06-26T09:36:43;22.10;99.90
1391;DHT22;690;51.454;7.194;2023-06-26T09:39:12;22.10;99.90
1391;DHT22;690;51.454;7.194;2023-06-26T09:41:41;22.20;99.90
1391;DHT22;690;51.454;7.194;2023-06-26T09:44:11;22.30;99.90
1391;DHT22;690;51.454;7.194;2023-06-26T09:46:38;22.40;99.90
1391;DHT22;690;51.454;7.194;2023-06-26T09:49:06;22.50;99.90
1391;DHT22;690;51.454;7.194;2023-06-26T09:51:34;22.40;99.90
1391;DHT22;690;51.454;7.194;2023-06-26T09:54:02;22.40;99.90
1391;DHT22;690;51.454;7.194;2023-06-26T09:56:29;22.40;99.90
1391;DHT22;690;51.454;7.194;2023-06-26T09:58:58;22.20;99.90
1391;DHT22;690;51.454;7.194;2023-06-26T10:01:27;22.10;99.90
1391;DHT22;690;51.454;7.194;2023-06-26T10:03:55;22.10;99.90
1391;DHT22;690;51.454;7.194;2023-06-26T10:06:27;22.20;99.90
1391;DHT22;690;51.454;7.194;2023-06-26T10:08:54;22.30;99.90
1391;DHT22;690;51.454;7.194;2023-06-26T10:11:23;22.40;99.90
1391;DHT22;690;51.454;7.194;2023-06-26T10:13:51;22.50;99.90
1391;DHT22;690;51.454;7.194;2023-06-26T10:16:23;22.70;99.90
1391;DHT22;690;51.454;7.194;2023-06-26T10:18:56;22.90;99.90
1391;DHT22;690;51.454;7.194;2023-06-26T10:21:25;23.00;99.90
1391;DHT22;690;51.454;7.194;2023-06-26T10:23:53;23.00;99.90
1391;DHT22;690;51.454;7.194;2023-06-26T10:26:21;23.00;99.90
1391;DHT22;690;51.454;7.194;2023-06-26T10:28:50;23.00;99.90
1391;DHT22;690;51.454;7.194;2023-06-26T10:31:19;23.00;99.90
1391;DHT22;690;51.454;7.194;2023-06-26T10:33:48;23.00;99.90
1391;DHT22;690;51.454;7.194;2023-06-26T10:36:18;23.10;99.90
1391;DHT22;690;51.454;7.194;2023-06-26T10:38:50;23.40;99.90
1391;DHT22;690;51.454;7.194;2023-06-26T10:41:20;23.60;99.90
1391;DHT22;690;51.454;7.194;2023-06-26T10:43:50;23.60;99.90
1391;DHT22;690;51.454;7.194;2023-06-26T10:46:18;23.60;99.90
1391;DHT22;690;51.454;7.194;2023-06-26T10:48:57;23.70;99.90
1391;DHT22;690;51.454;7.194;2023-06-26T10:51:27;23.90;99.90
1391;DHT22;690;51.454;7.194;2023-06-26T10:53:54;24.00;99.90
1391;DHT22;690;51.454;7.194;2023-06-26T10:56:23;24.20;99.90
1391;DHT22;690;51.454;7.194;2023-06-26T10:59:18;24.20;99.90
1391;DHT22;690;51.454;7.194;2023-06-26T11:01:46;24.30;99.90
1391;DHT22;690;51.454;7.194;2023-06-26T11:04:36;24.60;99.90
1391;DHT22;690;51.454;7.194;2023-06-26T11:07:18;24.70;99.90
1391;DHT22;690;51.454;7.194;2023-06-26T11:09:59;24.90;99.90
1391;DHT22;690;51.454;7.194;2023-06-26T11:12:36;25.00;99.90
1391;DHT22;690;51.454;7.194;2023-06-26T11:15:04;24.60;99.90
1391;DHT22;690;51.454;7.194;2023-06-26T11:17:34;24.10;99.90
1391;DHT22;690;51.454;7.194;2023-06-26T11:20:01;23.70;99.90
1391;DHT22;690;51.454;7.194;2023-06-26T11:22:32;23.50;99.90
1391;DHT22;690;51.454;7.194;2023-06-26T11:25:01;23.30;99.90
1391;DHT22;690;51.454;7.194;2023-06-26T11:27:31;23.20;99.90
1391;DHT22;690;51.454;7.194;2023-06-26T11:29:58;23.10;99.90
1391;DHT22;690;51.454;7.194;2023-06-26T11:32:26;23.00;99.90
1391;DHT22;690;51.454;7.194;2023-06-26T11:34:54;23.20;99.90
1391;DHT22;690;51.454;7.194;2023-06-26T11:37:21;23.70;99.90
1391;DHT22;690;51.454;7.194;2023-06-26T11:39:50;24.00;99.90
1391;DHT22;690;51.454;7.194;2023-06-26T11:42:17;24.10;99.90
1391;DHT22;690;51.454;7.194;2023-06-26T11:44:45;24.00;99.90
1391;DHT22;690;51.454;7.194;2023-06-26T11:47:13;24.00;99.90
1391;DHT22;690;51.454;7.194;2023-06-26T11:49:42;23.90;99.90
1391;DHT22;690;51.454;7.194;2023-06-26T11:52:10;23.80;99.90
1391;DHT22;690;51.454;7.194;2023-06-26T11:54:37;23.90;99.90
1391;DHT22;690;51.454;7.194;2023-06-26T11:57:06;24.20;99.90
1391;DHT22;690;51.454;7.194;2023-06-26T11:59:34;24.40;99.90
1391;DHT22;690;51.454;7.194;2023-06-26T12:02:06;24.30;99.90
1391;DHT22;690;51.454;7.194;2023-06-26T12:04:36;24.20;99.90
1391;DHT22;690;51.454;7.194;2023-06-26T12:07:05;24.00;99.90
1391;DHT22;690;51.454;7.194;2023-06-26T12:09:37;24.00;99.90
1391;DHT22;690;51.454;7.194;2023-06-26T12:12:07;24.00;99.90
1391;DHT22;690;51.454;7.194;2023-06-26T12:14:34;24.10;99.90
1391;DHT22;690;51.454;7.194;2023-06-26T12:17:05;24.10;99.90
1391;DHT22;690;51.454;7.194;2023-06-26T12:19:37;23.70;99.90
1391;DHT22;690;51.454;7.194;2023-06-26T12:22:06;23.60;99.90
1391;DHT22;690;51.454;7.194;2023-06-26T12:24:36;23.50;99.90
1391;DHT22;690;51.454;7.194;2023-06-26T12:27:09;23.60;99.90
1391;DHT22;690;51.454;7.194;2023-06-26T12:29:38;23.70;99.90
1391;DHT22;690;51.454;7.194;2023-06-26T12:32:08;23.90;99.90
1391;DHT22;690;51.454;7.194;2023-06-26T12:34:37;24.00;99.90
1391;DHT22;690;51.454;7.194;2023-06-26T12:37:06;23.90;99.90
1391;DHT22;690;51.454;7.194;2023-06-26T12:39:46;23.80;99.90
1391;DHT22;690;51.454;7.194;2023-06-26T12:42:15;23.80;99.90
1391;DHT22;690;51.454;7.194;2023-06-26T12:44:42;23.60;99.90
1391;DHT22;690;51.454;7.194;2023-06-26T12:47:09;23.50;99.90
1391;DHT22;690;51.454;7.194;2023-06-26T12:49:40;23.40;99.90
1391;DHT22;690;51.454;7.194;2023-06-26T12:52:09;23.30;99.90
1391;DHT22;690;51.454;7.194;2023-06-26T12:54:39;23.40;99.90
1391;DHT22;690;51.454;7.194;2023-06-26T12:57:06;23.30;99.90
1391;DHT22;690;51.454;7.194;2023-06-26T12:59:36;23.40;99.90
1391;DHT22;690;51.454;7.194;2023-06-26T13:02:04;23.50;99.90
1391;DHT22;690;51.454;7.194;2023-06-26T13:04:32;23.60;99.90
1391;DHT22;690;51.454;7.194;2023-06-26T13:06:59;23.50;99.90
1391;DHT22;690;51.454;7.194;2023-06-26T13:09:26;23.20;99.90
1391;DHT22;690;51.454;7.194;2023-06-26T13:11:53;23.40;99.90
1391;DHT22;690;51.454;7.194;2023-06-26T13:14:21;23.50;99.90
1391;DHT22;690;51.454;7.194;2023-06-26T13:16:49;23.50;99.90
1391;DHT22;690;51.454;7.194;2023-06-26T13:19:16;23.50;99.90
1391;DHT22;690;51.454;7.194;2023-06-26T13:21:43;23.60;99.90
1391;DHT22;690;51.454;7.194;2023-06-26T13:24:10;23.60;99.90
1391;DHT22;690;51.454;7.194;2023-06-26T13:26:37;23.50;99.90
1391;DHT22;690;51.454;7.194;2023-06-26T13:29:04;23.40;99.90
1391;DHT22;690;51.454;7.194;2023-06-26T13:31:30;23.30;99.90
1391;DHT22;690;51.454;7.194;2023-06-26T13:33:59;23.20;99.90
1391;DHT22;690;51.454;7.194;2023-06-26T13:36:26;23.10;99.90
1391;DHT22;690;51.454;7.194;2023-06-26T13:38:53;23.00;99.90
1391;DHT22;690;51.454;7.194;2023-06-26T13:41:22;22.90;99.10
1391;DHT22;690;51.454;7.194;2023-06-26T13:43:49;22.80;98.10
1391;DHT22;690;51.454;7.194;2023-06-26T13:46:16;22.90;98.70
1391;DHT22;690;51.454;7.194;2023-06-26T13:48:43;23.00;98.30
1391;DHT22;690;51.454;7.194;2023-06-26T13:51:12;22.90;97.90
1391;DHT22;690;51.454;7.194;2023-06-26T13:53:39;22.70;96.30
1391;DHT22;690;51.454;7.194;2023-06-26T13:56:06;22.60;95.70
1391;DHT22;690;51.454;7.194;2023-06-26T13:58:35;22.70;95.70
1391;DHT22;690;51.454;7.194;2023-06-26T14:01:02;22.70;95.60
1391;DHT22;690;51.454;7.194;2023-06-26T14:03:29;22.90;95.80
1391;DHT22;690;51.454;7.194;2023-06-26T14:05:56;23.00;96.00
1391;DHT22;690;51.454;7.194;2023-06-26T14:08:24;23.10;95.80
1391;DHT22;690;51.454;7.194;2023-06-26T14:10:51;23.20;95.80
1391;DHT22;690;51.454;7.194;2023-06-26T14:13:18;23.30;96.20
1391;DHT22;690;51.454;7.194;2023-06-26T14:15:45;23.40;96.40
1391;DHT22;690;51.454;7.194;2023-06-26T14:18:12;23.50;96.80
1391;DHT22;690;51.454;7.194;2023-06-26T14:20:39;23.70;97.40
1391;DHT22;690;51.454;7.194;2023-06-26T14:23:06;23.80;98.00
1391;DHT22;690;51.454;7.194;2023-06-26T14:25:34;23.90;98.50
1391;DHT22;690;51.454;7.194;2023-06-26T14:28:02;24.00;98.60
1391;DHT22;690;51.454;7.194;2023-06-26T14:30:28;23.80;98.00
1391;DHT22;690;51.454;7.194;2023-06-26T14:32:55;23.60;96.90
1391;DHT22;690;51.454;7.194;2023-06-26T14:35:22;23.70;97.00
1391;DHT22;690;51.454;7.194;2023-06-26T14:37:49;23.60;96.10
1391;DHT22;690;51.454;7.194;2023-06-26T14:40:16;23.70;96.10
1391;DHT22;690;51.454;7.194;2023-06-26T14:42:44;23.80;97.00
1391;DHT22;690;51.454;7.194;2023-06-26T14:45:12;23.90;98.90
1391;DHT22;690;51.454;7.194;2023-06-26T14:47:38;23.80;99.00
1391;DHT22;690;51.454;7.194;2023-06-26T14:50:07;23.80;99.10
1391;DHT22;690;51.454;7.194;2023-06-26T14:52:34;23.70;98.90
1391;DHT22;690;51.454;7.194;2023-06-26T14:55:01;23.40;98.00
1391;DHT22;690;51.454;7.194;2023-06-26T14:57:28;23.30;98.20
1391;DHT22;690;51.454;7.194;2023-06-26T14:59:57;23.10;97.70
1391;DHT22;690;51.454;7.194;2023-06-26T15:02:24;23.00;97.30
1391;DHT22;690;51.454;7.194;2023-06-26T15:04:51;22.80;96.80
1391;DHT22;690;51.454;7.194;2023-06-26T15:07:18;22.80;97.40
1391;DHT22;690;51.454;7.194;2023-06-26T15:09:44;22.90;97.40
1391;DHT22;690;51.454;7.194;2023-06-26T15:12:11;23.00;97.60
1391;DHT22;690;51.454;7.194;2023-06-26T15:14:39;23.10;97.80
1391;DHT22;690;51.454;7.194;2023-06-26T15:17:07;23.30;98.50
1391;DHT22;690;51.454;7.194;2023-06-26T15:19:34;23.50;99.30
1391;DHT22;690;51.454;7.194;2023-06-26T15:22:01;23.50;99.00
1391;DHT22;690;51.454;7.194;2023-06-26T15:24:28;23.50;99.00
1391;DHT22;690;51.454;7.194;2023-06-26T15:26:55;23.80;99.90
1391;DHT22;690;51.454;7.194;2023-06-26T15:29:22;24.10;99.90
1391;DHT22;690;51.454;7.194;2023-06-26T15:31:49;25.10;99.90
1391;DHT22;690;51.454;7.194;2023-06-26T15:34:17;25.60;99.90
1391;DHT22;690;51.454;7.194;2023-06-26T15:36:44;25.20;99.90
1391;DHT22;690;51.454;7.194;2023-06-26T15:39:11;24.40;99.90
1391;DHT22;690;51.454;7.194;2023-06-26T15:41:38;23.60;98.50
1391;DHT22;690;51.454;7.194;2023-06-26T15:44:05;23.20;97.40
1391;DHT22;690;51.454;7.194;2023-06-26T15:46:32;22.90;96.10
1391;DHT22;690;51.454;7.194;2023-06-26T15:48:58;23.00;96.50
1391;DHT22;690;51.454;7.194;2023-06-26T15:51:27;23.20;97.30
1391;DHT22;690;51.454;7.194;2023-06-26T15:53:54;23.30;97.70
1391;DHT22;690;51.454;7.194;2023-06-26T15:56:22;23.20;97.40
1391;DHT22;690;51.454;7.194;2023-06-26T15:58:48;22.90;96.20
1391;DHT22;690;51.454;7.194;2023-06-26T16:01:15;22.50;94.60
1391;DHT22;690;51.454;7.194;2023-06-26T16:03:42;22.20;93.60
1391;DHT22;690;51.454;7.194;2023-06-26T16:06:10;21.90;92.60
1391;DHT22;690;51.454;7.194;2023-06-26T16:08:38;21.70;92.00
1391;DHT22;690;51.454;7.194;2023-06-26T16:11:06;21.60;91.90
1391;DHT22;690;51.454;7.194;2023-06-26T16:13:33;21.50;91.20
1391;DHT22;690;51.454;7.194;2023-06-26T16:16:00;21.40;90.60
1391;DHT22;690;51.454;7.194;2023-06-26T16:18:27;21.40;90.40
1391;DHT22;690;51.454;7.194;2023-06-26T16:20:54;21.40;90.60
1391;DHT22;690;51.454;7.194;2023-06-26T16:23:22;21.40;90.60